createdAt,value
2017-11-05T00:01:07.882Z,0
2017-11-05T00:02:17.330Z,0
2017-11-05T00:03:27.428Z,0
2017-11-05T00:04:36.798Z,0
2017-11-05T00:05:46.236Z,0
2017-11-05T00:06:56.427Z,0
2017-11-05T00:08:06.847Z,0
2017-11-05T00:09:16.995Z,0
2017-11-05T00:10:27.043Z,0
2017-11-05T00:11:36.756Z,0
2017-11-05T00:12:47.119Z,0
2017-11-05T00:13:57.498Z,0
2017-11-05T00:15:07.542Z,0
2017-11-05T00:16:16.926Z,0
2017-11-05T00:17:27.291Z,0
2017-11-05T00:18:37.317Z,0
2017-11-05T00:19:47.371Z,0
2017-11-05T00:20:57.411Z,0
2017-11-05T00:22:07.464Z,0
2017-11-05T00:23:17.511Z,0
2017-11-05T00:24:27.596Z,4
2017-11-05T00:25:37.761Z,4
2017-11-05T00:26:47.620Z,0
2017-11-05T00:27:57.662Z,4
2017-11-05T00:29:07.008Z,4
2017-11-05T00:30:17.374Z,4
2017-11-05T00:31:27.066Z,4
2017-11-05T00:32:37.099Z,4
2017-11-05T00:33:46.781Z,4
2017-11-05T00:34:56.136Z,4
2017-11-05T00:36:04.820Z,4
2017-11-05T00:37:14.509Z,4
2017-11-05T00:38:24.553Z,4
2017-11-05T00:39:34.919Z,4
2017-11-05T00:40:45.315Z,4
2017-11-05T00:41:54.989Z,4
2017-11-05T00:43:04.687Z,4
2017-11-05T00:44:14.706Z,4
2017-11-05T00:45:23.382Z,4
2017-11-05T00:46:32.734Z,4
2017-11-05T00:47:42.431Z,4
2017-11-05T00:48:52.800Z,4
2017-11-05T00:50:02.818Z,4
2017-11-05T00:51:12.513Z,4
2017-11-05T00:52:22.196Z,4
2017-11-05T00:53:31.883Z,4
2017-11-05T00:54:41.919Z,4
2017-11-05T00:55:51.968Z,4
2017-11-05T00:57:02.019Z,4
2017-11-05T00:58:11.701Z,4
2017-11-05T00:59:21.752Z,4
2017-11-05T01:00:31.112Z,4
2017-11-05T01:01:41.145Z,4
2017-11-05T01:02:51.176Z,4
2017-11-05T01:04:00.871Z,4
2017-11-05T01:05:11.318Z,4
2017-11-05T01:06:21.124Z,4
2017-11-05T01:07:30.137Z,4
2017-11-05T01:08:39.493Z,4
2017-11-05T01:09:49.171Z,4
2017-11-05T01:10:59.220Z,4
2017-11-05T01:12:08.903Z,4
2017-11-05T01:13:18.602Z,4
2017-11-05T01:14:27.948Z,4
2017-11-05T01:15:36.969Z,4
2017-11-05T01:16:46.665Z,4
2017-11-05T01:17:56.682Z,4
2017-11-05T01:19:06.385Z,4
2017-11-05T01:20:15.737Z,4
2017-11-05T01:21:26.104Z,4
2017-11-05T01:22:35.469Z,4
2017-11-05T01:23:45.836Z,4
2017-11-05T01:24:56.200Z,4
2017-11-05T01:26:05.916Z,4
2017-11-05T01:27:16.286Z,4
2017-11-05T01:28:25.669Z,4
2017-11-05T01:29:35.689Z,4
2017-11-05T01:30:45.741Z,4
2017-11-05T01:31:54.885Z,4
2017-11-05T01:33:05.045Z,4
2017-11-05T01:34:15.209Z,4
2017-11-05T01:35:25.296Z,4
2017-11-05T01:36:35.103Z,4
2017-11-05T01:37:45.288Z,4
2017-11-05T01:38:55.433Z,4
2017-11-05T01:40:05.453Z,4
2017-11-05T01:41:15.522Z,4
2017-11-05T01:42:24.623Z,4
2017-11-05T01:43:34.404Z,4
2017-11-05T01:44:44.240Z,4
2017-11-05T01:45:53.661Z,4
2017-11-05T01:47:03.762Z,4
2017-11-05T01:48:13.224Z,4
2017-11-05T01:49:22.625Z,4
2017-11-05T01:50:32.038Z,4
2017-11-05T01:51:42.127Z,4
2017-11-05T01:52:51.939Z,4
2017-11-05T01:54:02.098Z,4
2017-11-05T01:55:12.184Z,4
2017-11-05T01:56:21.246Z,4
2017-11-05T01:57:31.383Z,4
2017-11-05T01:58:41.129Z,4
2017-11-05T01:59:50.899Z,4
2017-11-05T02:01:00.606Z,4
2017-11-05T02:02:10.319Z,4
2017-11-05T02:03:20.062Z,4
2017-11-05T02:04:29.797Z,4
2017-11-05T02:05:39.894Z,4
2017-11-05T02:06:50.374Z,4
2017-11-05T02:08:00.670Z,4
2017-11-05T02:09:10.747Z,4
2017-11-05T02:10:20.808Z,4
2017-11-05T02:11:30.659Z,4
2017-11-05T02:12:40.814Z,4
2017-11-05T02:13:50.959Z,4
2017-11-05T02:15:01.041Z,4
2017-11-05T02:16:11.427Z,4
2017-11-05T02:17:21.466Z,4
2017-11-05T02:18:30.847Z,4
2017-11-05T02:19:40.877Z,4
2017-11-05T02:20:49.963Z,4
2017-11-05T02:22:00.062Z,4
2017-11-05T02:23:09.464Z,4
2017-11-05T02:24:19.627Z,4
2017-11-05T02:25:30.153Z,4
2017-11-05T02:26:40.341Z,4
2017-11-05T02:27:50.884Z,4
2017-11-05T02:29:00.580Z,4
2017-11-05T02:30:10.480Z,4
2017-11-05T02:31:19.923Z,4
2017-11-05T02:32:29.688Z,4
2017-11-05T02:33:39.442Z,4
2017-11-05T02:34:49.218Z,4
2017-11-05T02:35:59.008Z,4
2017-11-05T02:37:09.211Z,4
2017-11-05T02:38:19.301Z,4
2017-11-05T02:39:31.722Z,4
2017-11-05T02:40:42.190Z,4
2017-11-05T02:41:52.347Z,4
2017-11-05T02:43:02.122Z,4
2017-11-05T02:44:12.269Z,4
2017-11-05T02:45:22.515Z,4
2017-11-05T02:46:31.968Z,4
2017-11-05T02:47:42.076Z,4
2017-11-05T02:48:52.166Z,4
2017-11-05T02:50:02.251Z,4
2017-11-05T02:51:12.740Z,4
2017-11-05T02:52:22.801Z,4
2017-11-05T02:53:32.531Z,4
2017-11-05T02:54:42.575Z,4
2017-11-05T02:55:52.934Z,4
2017-11-05T02:57:03.019Z,4
2017-11-05T02:58:13.060Z,4
2017-11-05T02:59:23.551Z,4
2017-11-05T03:00:33.678Z,4
2017-11-05T03:01:44.132Z,4
2017-11-05T03:02:53.545Z,4
2017-11-05T03:04:03.274Z,4
2017-11-05T03:05:12.746Z,4
2017-11-05T03:06:22.489Z,4
2017-11-05T03:07:32.548Z,4
2017-11-05T03:08:41.920Z,4
2017-11-05T03:09:51.999Z,4
2017-11-05T03:11:01.107Z,4
2017-11-05T03:12:10.816Z,4
2017-11-05T03:13:20.959Z,4
2017-11-05T03:14:31.212Z,4
2017-11-05T03:15:39.936Z,4
2017-11-05T03:16:50.074Z,4
2017-11-05T03:17:59.842Z,4
2017-11-05T03:19:09.554Z,4
2017-11-05T03:20:19.294Z,4
2017-11-05T03:21:29.426Z,4
2017-11-05T03:22:39.271Z,4
2017-11-05T03:23:48.801Z,4
2017-11-05T03:24:58.583Z,4
2017-11-05T03:26:07.758Z,4
2017-11-05T03:27:17.519Z,4
2017-11-05T03:28:26.998Z,4
2017-11-05T03:29:36.870Z,4
2017-11-05T03:30:47.030Z,4
2017-11-05T03:31:57.270Z,4
2017-11-05T03:33:07.070Z,4
2017-11-05T03:34:17.562Z,4
2017-11-05T03:35:27.016Z,4
2017-11-05T03:36:37.551Z,4
2017-11-05T03:37:47.338Z,4
2017-11-05T03:38:57.858Z,4
2017-11-05T03:40:07.671Z,4
2017-11-05T03:41:17.898Z,4
2017-11-05T03:42:27.711Z,4
2017-11-05T03:43:37.799Z,4
2017-11-05T03:44:48.334Z,4
2017-11-05T03:45:58.837Z,4
2017-11-05T03:47:08.659Z,4
2017-11-05T03:48:19.199Z,4
2017-11-05T03:49:28.986Z,4
2017-11-05T03:50:39.178Z,4
2017-11-05T03:51:49.386Z,4
2017-11-05T03:52:59.155Z,4
2017-11-05T03:54:08.983Z,4
2017-11-05T03:55:18.834Z,4
2017-11-05T03:56:28.656Z,4
2017-11-05T03:57:38.158Z,4
2017-11-05T03:58:47.899Z,4
2017-11-05T03:59:57.692Z,4
2017-11-05T04:01:07.410Z,4
2017-11-05T04:02:16.902Z,4
2017-11-05T04:03:26.371Z,4
2017-11-05T04:04:36.495Z,4
2017-11-05T04:05:47.046Z,4
2017-11-05T04:06:57.195Z,4
2017-11-05T04:08:06.983Z,4
2017-11-05T04:09:17.446Z,4
2017-11-05T04:10:26.892Z,4
2017-11-05T04:11:36.650Z,4
2017-11-05T04:12:45.758Z,4
2017-11-05T04:13:56.359Z,4
2017-11-05T04:15:06.783Z,4
2017-11-05T04:16:16.648Z,4
2017-11-05T04:17:27.149Z,4
2017-11-05T04:18:37.629Z,4
2017-11-05T04:19:46.704Z,4
2017-11-05T04:20:57.149Z,4
2017-11-05T04:22:06.831Z,4
2017-11-05T04:23:16.916Z,4
2017-11-05T04:24:26.611Z,4
2017-11-05T04:25:36.046Z,4
2017-11-05T04:26:46.369Z,4
2017-11-05T04:27:56.885Z,4
2017-11-05T04:29:07.124Z,4
2017-11-05T04:30:16.924Z,4
2017-11-05T04:31:26.464Z,4
2017-11-05T04:32:36.951Z,4
2017-11-05T04:33:47.493Z,4
2017-11-05T04:34:57.669Z,4
2017-11-05T04:36:07.147Z,4
2017-11-05T04:37:17.663Z,4
2017-11-05T04:38:27.399Z,4
2017-11-05T04:39:37.531Z,4
2017-11-05T04:40:47.655Z,4
2017-11-05T04:41:57.422Z,4
2017-11-05T04:43:08.010Z,4
2017-11-05T04:44:18.536Z,4
2017-11-05T04:45:27.676Z,4
2017-11-05T04:46:36.354Z,4
2017-11-05T04:47:45.733Z,4
2017-11-05T04:48:55.875Z,4
2017-11-05T04:50:06.354Z,4
2017-11-05T04:51:16.449Z,4
2017-11-05T04:52:25.862Z,4
2017-11-05T04:53:35.699Z,4
2017-11-05T04:54:45.519Z,4
2017-11-05T04:55:54.576Z,4
2017-11-05T04:57:04.613Z,4
2017-11-05T04:58:14.689Z,4
2017-11-05T04:59:24.782Z,4
2017-11-05T05:00:34.556Z,4
2017-11-05T05:01:44.995Z,4
2017-11-05T05:02:55.048Z,4
2017-11-05T05:04:04.822Z,4
2017-11-05T05:05:15.267Z,4
2017-11-05T05:06:24.292Z,4
2017-11-05T05:07:34.662Z,4
2017-11-05T05:08:44.008Z,4
2017-11-05T05:09:54.035Z,4
2017-11-05T05:11:03.730Z,4
2017-11-05T05:12:13.774Z,4
2017-11-05T05:13:23.474Z,4
2017-11-05T05:14:32.854Z,4
2017-11-05T05:15:42.882Z,4
2017-11-05T05:16:52.888Z,4
2017-11-05T05:18:02.581Z,4
2017-11-05T05:19:12.279Z,4
2017-11-05T05:20:21.982Z,4
2017-11-05T05:21:31.709Z,4
2017-11-05T05:22:41.741Z,4
2017-11-05T05:23:51.447Z,4
2017-11-05T05:25:01.476Z,4
2017-11-05T05:26:11.513Z,4
2017-11-05T05:27:21.544Z,4
2017-11-05T05:28:30.944Z,4
2017-11-05T05:29:40.972Z,4
2017-11-05T05:30:50.998Z,4
2017-11-05T05:32:00.347Z,4
2017-11-05T05:33:09.735Z,4
2017-11-05T05:34:19.178Z,4
2017-11-05T05:35:28.574Z,4
2017-11-05T05:36:38.752Z,4
2017-11-05T05:37:49.225Z,4
2017-11-05T05:38:58.996Z,4
2017-11-05T05:40:09.193Z,4
2017-11-05T05:41:19.354Z,4
2017-11-05T05:42:29.498Z,4
2017-11-05T05:43:38.940Z,4
2017-11-05T05:44:49.432Z,4
2017-11-05T05:45:59.892Z,4
2017-11-05T05:47:09.968Z,0
2017-11-05T05:48:20.065Z,0
2017-11-05T05:49:30.529Z,0
2017-11-05T05:50:41.016Z,0
2017-11-05T05:51:51.131Z,0
2017-11-05T05:53:01.276Z,0
2017-11-05T05:54:11.441Z,0
2017-11-05T05:55:21.555Z,0
2017-11-05T05:56:31.599Z,4
2017-11-05T05:57:41.975Z,4
2017-11-05T05:58:51.653Z,4
2017-11-05T06:00:01.023Z,4
2017-11-05T06:01:11.067Z,4
2017-11-05T06:02:21.122Z,4
2017-11-05T06:03:30.953Z,4
2017-11-05T06:04:40.752Z,4
2017-11-05T06:05:50.236Z,4
2017-11-05T06:07:00.102Z,4
2017-11-05T06:08:10.281Z,4
2017-11-05T06:09:20.110Z,4
2017-11-05T06:10:30.265Z,0
2017-11-05T06:11:39.369Z,0
2017-11-05T06:12:48.800Z,4
2017-11-05T06:13:59.313Z,4
2017-11-05T06:15:09.420Z,4
2017-11-05T06:16:19.161Z,4
2017-11-05T06:17:29.316Z,4
2017-11-05T06:18:39.159Z,4
2017-11-05T06:19:48.610Z,4
2017-11-05T06:20:58.447Z,4
2017-11-05T06:22:07.873Z,0
2017-11-05T06:23:17.317Z,0
2017-11-05T06:24:26.808Z,0
2017-11-05T06:25:37.316Z,4
2017-11-05T06:26:46.505Z,8
2017-11-05T06:27:56.290Z,4
2017-11-05T06:29:06.025Z,8
2017-11-05T06:30:15.767Z,8
2017-11-05T06:31:25.565Z,12
2017-11-05T06:32:35.680Z,12
2017-11-05T06:33:45.075Z,12
2017-11-05T06:34:55.499Z,12
2017-11-05T06:36:05.660Z,16
2017-11-05T06:37:15.431Z,16
2017-11-05T06:38:25.215Z,20
2017-11-05T06:39:34.318Z,20
2017-11-05T06:40:43.747Z,28
2017-11-05T06:41:53.870Z,28
2017-11-05T06:43:03.692Z,32
2017-11-05T06:44:13.769Z,36
2017-11-05T06:45:23.551Z,36
2017-11-05T06:46:32.937Z,40
2017-11-05T06:47:42.717Z,44
2017-11-05T06:48:52.474Z,44
2017-11-05T06:50:02.239Z,48
2017-11-05T06:51:12.633Z,52
2017-11-05T06:52:22.406Z,56
2017-11-05T06:53:32.508Z,60
2017-11-05T06:54:42.884Z,64
2017-11-05T06:55:52.944Z,60
2017-11-05T06:57:03.009Z,64
2017-11-05T06:58:13.040Z,64
2017-11-05T06:59:22.817Z,68
2017-11-05T07:00:33.260Z,76
2017-11-05T07:01:42.688Z,80
2017-11-05T07:02:52.855Z,84
2017-11-05T07:04:02.612Z,92
2017-11-05T07:05:12.694Z,100
2017-11-05T07:06:23.234Z,104
2017-11-05T07:07:32.763Z,112
2017-11-05T07:08:43.016Z,124
2017-11-05T07:09:52.394Z,140
2017-11-05T07:11:02.593Z,160
2017-11-05T07:12:12.723Z,176
2017-11-05T07:13:22.844Z,184
2017-11-05T07:14:32.955Z,200
2017-11-05T07:15:43.055Z,216
2017-11-05T07:16:53.244Z,236
2017-11-05T07:18:03.369Z,252
2017-11-05T07:19:13.182Z,264
2017-11-05T07:20:23.351Z,260
2017-11-05T07:21:32.798Z,252
2017-11-05T07:22:42.515Z,260
2017-11-05T07:23:51.887Z,268
2017-11-05T07:25:02.019Z,272
2017-11-05T07:26:11.790Z,276
2017-11-05T07:27:21.909Z,280
2017-11-05T07:28:32.016Z,292
2017-11-05T07:29:41.793Z,292
2017-11-05T07:30:50.585Z,292
2017-11-05T07:32:00.707Z,296
2017-11-05T07:33:10.539Z,304
2017-11-05T07:34:20.030Z,312
2017-11-05T07:35:30.133Z,316
2017-11-05T07:36:39.900Z,324
2017-11-05T07:37:50.015Z,328
2017-11-05T07:38:59.516Z,332
2017-11-05T07:40:08.996Z,340
2017-11-05T07:41:18.390Z,352
2017-11-05T07:42:27.893Z,364
2017-11-05T07:43:37.416Z,376
2017-11-05T07:44:47.558Z,384
2017-11-05T07:45:57.654Z,392
2017-11-05T07:47:06.798Z,400
2017-11-05T07:48:16.265Z,412
2017-11-05T07:49:26.044Z,420
2017-11-05T07:50:36.502Z,428
2017-11-05T07:51:46.573Z,432
2017-11-05T07:52:57.151Z,444
2017-11-05T07:54:07.672Z,452
2017-11-05T07:55:18.192Z,472
2017-11-05T07:56:28.378Z,488
2017-11-05T07:57:38.214Z,484
2017-11-05T07:58:48.056Z,476
2017-11-05T07:59:58.218Z,468
2017-11-05T08:01:08.710Z,440
2017-11-05T08:02:18.825Z,416
2017-11-05T08:03:29.218Z,404
2017-11-05T08:04:38.984Z,396
2017-11-05T08:05:48.367Z,376
2017-11-05T08:06:58.422Z,360
2017-11-05T08:08:07.869Z,352
2017-11-05T08:09:17.642Z,364
2017-11-05T08:10:27.811Z,396
2017-11-05T08:11:37.295Z,440
2017-11-05T08:12:46.750Z,472
2017-11-05T08:13:56.346Z,492
2017-11-05T08:15:05.867Z,484
2017-11-05T08:16:15.350Z,460
2017-11-05T08:17:25.545Z,428
2017-11-05T08:18:35.724Z,388
2017-11-05T08:19:45.459Z,360
2017-11-05T08:20:54.946Z,360
2017-11-05T08:22:05.417Z,392
2017-11-05T08:23:15.168Z,448
2017-11-05T08:24:25.372Z,504
2017-11-05T08:25:34.824Z,532
2017-11-05T08:26:44.863Z,528
2017-11-05T08:27:54.646Z,496
2017-11-05T08:29:04.396Z,452
2017-11-05T08:30:13.847Z,432
2017-11-05T08:31:23.647Z,436
2017-11-05T08:32:33.429Z,468
2017-11-05T08:33:43.578Z,532
2017-11-05T08:34:54.047Z,588
2017-11-05T08:36:03.786Z,608
2017-11-05T08:37:13.237Z,604
2017-11-05T08:38:23.127Z,604
2017-11-05T08:39:33.234Z,616
2017-11-05T08:40:42.419Z,632
2017-11-05T08:41:52.664Z,648
2017-11-05T08:43:02.168Z,656
2017-11-05T08:44:12.648Z,656
2017-11-05T08:45:22.500Z,652
2017-11-05T08:46:32.316Z,636
2017-11-05T08:47:42.500Z,600
2017-11-05T08:48:52.539Z,576
2017-11-05T08:50:02.316Z,584
2017-11-05T08:51:12.482Z,604
2017-11-05T08:52:22.617Z,620
2017-11-05T08:53:32.477Z,648
2017-11-05T08:54:41.941Z,684
2017-11-05T08:55:51.754Z,708
2017-11-05T08:57:01.860Z,720
2017-11-05T08:58:11.633Z,732
2017-11-05T08:59:21.357Z,740
2017-11-05T09:00:31.457Z,744
2017-11-05T09:01:41.173Z,744
2017-11-05T09:02:50.629Z,756
2017-11-05T09:04:01.111Z,780
2017-11-05T09:05:10.875Z,804
2017-11-05T09:06:20.719Z,824
2017-11-05T09:07:30.903Z,852
2017-11-05T09:08:40.326Z,884
2017-11-05T09:09:50.455Z,904
2017-11-05T09:11:00.346Z,900
2017-11-05T09:12:10.127Z,844
2017-11-05T09:13:19.617Z,808
2017-11-05T09:14:30.485Z,772
2017-11-05T09:15:40.698Z,756
2017-11-05T09:16:50.717Z,740
2017-11-05T09:18:00.756Z,732
2017-11-05T09:19:10.481Z,716
2017-11-05T09:20:20.584Z,700
2017-11-05T09:21:30.755Z,716
2017-11-05T09:22:41.245Z,780
2017-11-05T09:23:51.378Z,868
2017-11-05T09:25:01.450Z,936
2017-11-05T09:26:11.208Z,944
2017-11-05T09:27:20.916Z,912
2017-11-05T09:28:30.991Z,888
2017-11-05T09:29:40.354Z,896
2017-11-05T09:30:50.053Z,928
2017-11-05T09:31:59.404Z,952
2017-11-05T09:33:08.756Z,964
2017-11-05T09:34:18.137Z,980
2017-11-05T09:35:27.849Z,1004
2017-11-05T09:36:37.542Z,1024
2017-11-05T09:37:47.256Z,1056
2017-11-05T09:38:57.363Z,1092
2017-11-05T09:40:07.545Z,1124
2017-11-05T09:41:17.986Z,1148
2017-11-05T09:42:28.019Z,1200
2017-11-05T09:43:37.407Z,1300
2017-11-05T09:44:47.442Z,1408
2017-11-05T09:45:57.558Z,1508
2017-11-05T09:47:07.651Z,1584
2017-11-05T09:48:17.385Z,1656
2017-11-05T09:49:27.803Z,1720
2017-11-05T09:50:37.636Z,1760
2017-11-05T09:51:47.028Z,1788
2017-11-05T09:52:56.398Z,1812
2017-11-05T09:54:06.089Z,1812
2017-11-05T09:55:16.120Z,1836
2017-11-05T09:56:25.843Z,1864
2017-11-05T09:57:35.539Z,1940
2017-11-05T09:58:45.570Z,1984
2017-11-05T09:59:54.953Z,1992
2017-11-05T10:01:04.986Z,2028
2017-11-05T10:02:14.363Z,2024
2017-11-05T10:03:24.403Z,2028
2017-11-05T10:04:33.793Z,2072
2017-11-05T10:05:44.349Z,2140
2017-11-05T10:06:54.404Z,2148
2017-11-05T10:08:04.127Z,2168
2017-11-05T10:09:14.492Z,2048
2017-11-05T10:10:24.528Z,1908
2017-11-05T10:11:34.245Z,1708
2017-11-05T10:12:43.262Z,1468
2017-11-05T10:13:52.948Z,1236
2017-11-05T10:15:02.303Z,1100
2017-11-05T10:16:12.320Z,1132
2017-11-05T10:17:22.114Z,1304
2017-11-05T10:18:31.803Z,1504
2017-11-05T10:19:41.861Z,1608
2017-11-05T10:20:51.564Z,1704
2017-11-05T10:22:00.933Z,1844
2017-11-05T10:23:10.976Z,1988
2017-11-05T10:24:20.013Z,2100
2017-11-05T10:25:29.700Z,2188
2017-11-05T10:26:39.408Z,2296
2017-11-05T10:27:49.094Z,2432
2017-11-05T10:28:59.176Z,2536
2017-11-05T10:30:09.199Z,2608
2017-11-05T10:31:19.224Z,2576
2017-11-05T10:32:29.247Z,2560
2017-11-05T10:33:38.959Z,2524
2017-11-05T10:34:48.668Z,2448
2017-11-05T10:35:58.366Z,2320
2017-11-05T10:37:07.760Z,2204
2017-11-05T10:38:17.784Z,2120
2017-11-05T10:39:27.481Z,1992
2017-11-05T10:40:37.181Z,1904
2017-11-05T10:41:46.886Z,1860
2017-11-05T10:42:56.933Z,1876
2017-11-05T10:44:06.655Z,1924
2017-11-05T10:45:16.689Z,1996
2017-11-05T10:46:26.052Z,2096
2017-11-05T10:47:35.454Z,2240
2017-11-05T10:48:45.541Z,2328
2017-11-05T10:49:55.253Z,2420
2017-11-05T10:51:05.086Z,2460
2017-11-05T10:52:15.513Z,2452
2017-11-05T10:53:25.662Z,2476
2017-11-05T10:54:35.880Z,2504
2017-11-05T10:55:44.925Z,2512
2017-11-05T10:56:54.949Z,2552
2017-11-05T10:58:04.693Z,2596
2017-11-05T10:59:14.452Z,2640
2017-11-05T11:00:24.211Z,2644
2017-11-05T11:01:33.246Z,2672
2017-11-05T11:02:43.278Z,2732
2017-11-05T11:03:53.661Z,2776
2017-11-05T11:05:03.352Z,2768
2017-11-05T11:06:13.378Z,2760
2017-11-05T11:07:23.101Z,2812
2017-11-05T11:08:32.456Z,2848
2017-11-05T11:09:42.170Z,2908
2017-11-05T11:10:52.206Z,2928
2017-11-05T11:12:02.603Z,2936
2017-11-05T11:13:11.617Z,2944
2017-11-05T11:14:21.660Z,2940
2017-11-05T11:15:31.698Z,2972
2017-11-05T11:16:41.389Z,2960
2017-11-05T11:17:51.076Z,3020
2017-11-05T11:19:01.108Z,3020
2017-11-05T11:20:11.134Z,2992
2017-11-05T11:21:21.181Z,3028
2017-11-05T11:22:30.242Z,3104
2017-11-05T11:23:39.939Z,3136
2017-11-05T11:24:49.693Z,3212
2017-11-05T11:25:59.476Z,3296
2017-11-05T11:27:09.585Z,3368
2017-11-05T11:28:19.625Z,3276
2017-11-05T11:29:29.736Z,3252
2017-11-05T11:30:39.781Z,3372
2017-11-05T11:31:49.459Z,3324
2017-11-05T11:32:59.158Z,3284
2017-11-05T11:34:09.534Z,3312
2017-11-05T11:35:19.270Z,3332
2017-11-05T11:36:29.003Z,3372
2017-11-05T11:37:38.763Z,3340
2017-11-05T11:38:48.816Z,3232
2017-11-05T11:39:58.502Z,3304
2017-11-05T11:41:08.207Z,3376
2017-11-05T11:42:17.899Z,3484
2017-11-05T11:43:27.256Z,3392
2017-11-05T11:44:37.009Z,3568
2017-11-05T11:45:46.731Z,3488
2017-11-05T11:46:56.139Z,3524
2017-11-05T11:48:05.224Z,3500
2017-11-05T11:49:14.656Z,3436
2017-11-05T11:50:25.013Z,3400
2017-11-05T11:51:35.107Z,3380
2017-11-05T11:52:45.090Z,3272
2017-11-05T11:53:55.126Z,3236
2017-11-05T11:55:04.832Z,3232
2017-11-05T11:56:14.600Z,3224
2017-11-05T11:57:24.953Z,3184
2017-11-05T11:58:35.322Z,3188
2017-11-05T11:59:45.014Z,3280
2017-11-05T12:00:55.395Z,3252
2017-11-05T12:02:05.144Z,3108
2017-11-05T12:03:15.185Z,2988
2017-11-05T12:04:25.552Z,2908
2017-11-05T12:05:35.238Z,2644
2017-11-05T12:06:45.013Z,2552
2017-11-05T12:07:55.038Z,2592
2017-11-05T12:09:04.135Z,2360
2017-11-05T12:10:13.903Z,2084
2017-11-05T12:11:23.932Z,1808
2017-11-05T12:12:34.443Z,1852
2017-11-05T12:13:43.800Z,2308
2017-11-05T12:14:54.269Z,1976
2017-11-05T12:16:04.398Z,2280
2017-11-05T12:17:13.805Z,2796
2017-11-05T12:18:23.554Z,3192
2017-11-05T12:19:33.363Z,3080
2017-11-05T12:20:43.814Z,3356
2017-11-05T12:21:53.991Z,3476
2017-11-05T12:23:03.738Z,3328
2017-11-05T12:24:13.447Z,3684
2017-11-05T12:25:23.525Z,3184
2017-11-05T12:26:33.233Z,3012
2017-11-05T12:27:42.922Z,2900
2017-11-05T12:28:52.978Z,2872
2017-11-05T12:30:03.348Z,3028
2017-11-05T12:31:12.830Z,2740
2017-11-05T12:32:22.647Z,3112
2017-11-05T12:33:32.737Z,3356
2017-11-05T12:34:42.466Z,3436
2017-11-05T12:35:52.241Z,3296
2017-11-05T12:37:02.400Z,3124
2017-11-05T12:38:12.509Z,3352
2017-11-05T12:39:22.939Z,3424
2017-11-05T12:40:32.985Z,3376
2017-11-05T12:41:42.381Z,3264
2017-11-05T12:42:52.491Z,3140
2017-11-05T12:44:01.551Z,3136
2017-11-05T12:45:10.913Z,3052
2017-11-05T12:46:20.607Z,3140
2017-11-05T12:47:30.631Z,3124
2017-11-05T12:48:40.399Z,2984
2017-11-05T12:49:50.337Z,2836
2017-11-05T12:51:00.740Z,2680
2017-11-05T12:52:10.472Z,2720
2017-11-05T12:53:20.509Z,2768
2017-11-05T12:54:30.560Z,2756
2017-11-05T12:55:40.633Z,2680
2017-11-05T12:56:50.722Z,2480
2017-11-05T12:58:00.411Z,1820
2017-11-05T12:59:09.428Z,1708
2017-11-05T13:00:18.442Z,1756
2017-11-05T13:01:28.512Z,1792
2017-11-05T13:02:38.570Z,1772
2017-11-05T13:03:47.918Z,1760
2017-11-05T13:04:57.955Z,1748
2017-11-05T13:06:07.331Z,1704
2017-11-05T13:07:17.374Z,1644
2017-11-05T13:08:27.072Z,1624
2017-11-05T13:09:36.421Z,1720
2017-11-05T13:10:46.163Z,1860
2017-11-05T13:11:56.199Z,2192
2017-11-05T13:13:05.969Z,2116
2017-11-05T13:14:15.672Z,2176
2017-11-05T13:15:25.728Z,2180
2017-11-05T13:16:35.422Z,2144
2017-11-05T13:17:45.440Z,2152
2017-11-05T13:18:55.539Z,2140
2017-11-05T13:20:05.619Z,2152
2017-11-05T13:21:16.007Z,2660
2017-11-05T13:22:26.057Z,2600
2017-11-05T13:23:35.749Z,2468
2017-11-05T13:24:45.824Z,2308
2017-11-05T13:25:55.213Z,2288
2017-11-05T13:27:04.912Z,2840
2017-11-05T13:28:14.263Z,2844
2017-11-05T13:29:23.994Z,2612
2017-11-05T13:30:33.706Z,2532
2017-11-05T13:31:43.742Z,2632
2017-11-05T13:32:53.109Z,2660
2017-11-05T13:34:02.832Z,2752
2017-11-05T13:35:12.892Z,2736
2017-11-05T13:36:22.942Z,2648
2017-11-05T13:37:32.659Z,2532
2017-11-05T13:38:42.699Z,2420
2017-11-05T13:39:52.407Z,2400
2017-11-05T13:41:02.776Z,2420
2017-11-05T13:42:12.476Z,2480
2017-11-05T13:43:22.244Z,2528
2017-11-05T13:44:31.950Z,2532
2017-11-05T13:45:42.030Z,2368
2017-11-05T13:46:52.074Z,2180
2017-11-05T13:48:01.440Z,1956
2017-11-05T13:49:10.468Z,1840
2017-11-05T13:50:20.482Z,1660
2017-11-05T13:51:30.563Z,1224
2017-11-05T13:52:40.615Z,1204
2017-11-05T13:53:49.987Z,1160
2017-11-05T13:55:00.366Z,1120
2017-11-05T13:56:09.748Z,1072
2017-11-05T13:57:19.799Z,1008
2017-11-05T13:58:29.937Z,872
2017-11-05T13:59:39.021Z,760
2017-11-05T14:00:48.704Z,660
2017-11-05T14:01:58.056Z,548
2017-11-05T14:03:08.095Z,452
2017-11-05T14:04:18.146Z,412
2017-11-05T14:05:27.828Z,380
2017-11-05T14:06:38.210Z,340
2017-11-05T14:07:47.259Z,288
2017-11-05T14:08:57.687Z,244
2017-11-05T14:10:08.086Z,208
2017-11-05T14:11:18.171Z,184
2017-11-05T14:12:27.866Z,176
2017-11-05T14:13:37.570Z,184
2017-11-05T14:14:47.610Z,188
2017-11-05T14:15:58.026Z,192
2017-11-05T14:17:07.758Z,184
2017-11-05T14:18:17.483Z,188
2017-11-05T14:19:27.223Z,192
2017-11-05T14:20:37.245Z,196
2017-11-05T14:21:46.969Z,200
2017-11-05T14:22:57.008Z,204
2017-11-05T14:24:07.046Z,220
2017-11-05T14:25:16.424Z,232
2017-11-05T14:26:26.123Z,240
2017-11-05T14:27:35.492Z,240
2017-11-05T14:28:44.905Z,228
2017-11-05T14:29:55.311Z,220
2017-11-05T14:31:05.699Z,220
2017-11-05T14:32:15.437Z,224
2017-11-05T14:33:25.129Z,224
2017-11-05T14:34:34.887Z,236
2017-11-05T14:35:44.618Z,248
2017-11-05T14:36:55.009Z,268
2017-11-05T14:38:05.050Z,280
2017-11-05T14:39:15.112Z,300
2017-11-05T14:40:25.163Z,312
2017-11-05T14:41:34.882Z,320
2017-11-05T14:42:44.899Z,348
2017-11-05T14:43:54.959Z,384
2017-11-05T14:45:03.994Z,444
2017-11-05T14:46:13.370Z,540
2017-11-05T14:47:22.748Z,604
2017-11-05T14:48:32.805Z,616
2017-11-05T14:49:42.505Z,604
2017-11-05T14:50:52.188Z,600
2017-11-05T14:52:01.894Z,576
2017-11-05T14:53:11.963Z,572
2017-11-05T14:54:21.985Z,560
2017-11-05T14:55:31.725Z,552
2017-11-05T14:56:40.775Z,528
2017-11-05T14:57:50.163Z,476
2017-11-05T14:59:00.551Z,404
2017-11-05T15:00:10.283Z,352
2017-11-05T15:01:19.985Z,316
2017-11-05T15:02:29.676Z,300
2017-11-05T15:03:39.399Z,288
2017-11-05T15:04:48.439Z,276
2017-11-05T15:05:57.805Z,260
2017-11-05T15:07:07.495Z,252
2017-11-05T15:08:16.865Z,256
2017-11-05T15:09:26.891Z,252
2017-11-05T15:10:36.575Z,248
2017-11-05T15:11:46.257Z,220
2017-11-05T15:12:55.963Z,184
2017-11-05T15:14:05.343Z,148
2017-11-05T15:15:15.384Z,132
2017-11-05T15:16:25.391Z,116
2017-11-05T15:17:35.399Z,120
2017-11-05T15:18:45.821Z,116
2017-11-05T15:19:55.169Z,108
2017-11-05T15:21:04.538Z,88
2017-11-05T15:22:13.912Z,72
2017-11-05T15:23:24.339Z,60
2017-11-05T15:24:34.369Z,48
2017-11-05T15:25:44.442Z,52
2017-11-05T15:26:54.134Z,60
2017-11-05T15:28:04.177Z,76
2017-11-05T15:29:14.217Z,92
2017-11-05T15:30:23.227Z,96
2017-11-05T15:31:32.934Z,88
2017-11-05T15:32:43.308Z,84
2017-11-05T15:33:53.342Z,84
2017-11-05T15:35:03.721Z,80
2017-11-05T15:36:13.458Z,72
2017-11-05T15:37:23.140Z,60
2017-11-05T15:38:33.270Z,52
2017-11-05T15:39:43.329Z,52
2017-11-05T15:40:53.396Z,52
2017-11-05T15:42:03.111Z,48
2017-11-05T15:43:12.152Z,48
2017-11-05T15:44:21.198Z,44
2017-11-05T15:45:30.912Z,44
2017-11-05T15:46:40.640Z,40
2017-11-05T15:47:50.335Z,44
2017-11-05T15:49:00.982Z,44
2017-11-05T15:50:10.793Z,40
2017-11-05T15:51:20.581Z,44
2017-11-05T15:52:30.650Z,44
2017-11-05T15:53:40.759Z,44
2017-11-05T15:54:50.783Z,40
2017-11-05T15:56:00.861Z,40
2017-11-05T15:57:10.269Z,40
2017-11-05T15:58:20.423Z,36
2017-11-05T15:59:30.535Z,36
2017-11-05T16:00:40.592Z,32
2017-11-05T16:01:50.363Z,32
2017-11-05T16:02:59.775Z,28
2017-11-05T16:04:09.853Z,28
2017-11-05T16:05:19.951Z,24
2017-11-05T16:06:29.363Z,24
2017-11-05T16:07:39.778Z,20
2017-11-05T16:08:49.581Z,20
2017-11-05T16:09:59.639Z,20
2017-11-05T16:11:08.393Z,16
2017-11-05T16:12:18.126Z,16
2017-11-05T16:13:27.847Z,16
2017-11-05T16:14:37.215Z,16
2017-11-05T16:15:46.240Z,12
2017-11-05T16:16:55.612Z,8
2017-11-05T16:18:05.335Z,12
2017-11-05T16:19:15.093Z,8
2017-11-05T16:20:24.781Z,8
2017-11-05T16:21:34.193Z,4
2017-11-05T16:22:43.573Z,8
2017-11-05T16:23:52.952Z,4